Terminal Aerodrome Forecast
Issued by NWS Cleveland, OH

Home | Current Version | Previous Version | Graphics & Text | Print | Product List | Glossary On
Versions: 1 2 3 4 5 6 7 8 9 10 11 12 13 14 15 16 17 18
000
FTUS41 KCLE 282300
TAFERI
TAF
KERI 282322Z 0100/0124 VRB04KT P6SM BKN250
     FM010700 14004KT P6SM OVC050
     FM010800 15004KT 5SM -SN SCT015 OVC035
      TEMPO 0108/0110 3SM -SN BKN008 OVC015
     FM011000 16005KT 2SM -SN OVC010
     FM011200 18007KT 1SM -SN OVC008
     FM011800 23007KT 3SM -SN BR SCT008 OVC015=

USA.gov is the U.S. government's official web portal to all federal, state and local government web resources and services.